sensor_id;sensor_type;location;lat;lon;timestamp;pressure;altitude;pressure_sealevel;temperature;humidity
82953;BME280;74888;40.196;44.560;2024-02-14T00:00:12;87328.66;;;9.37;42.89
82953;BME280;74888;40.196;44.560;2024-02-14T00:02:46;87328.22;;;9.39;42.80
82953;BME280;74888;40.196;44.560;2024-02-14T00:05:21;87324.63;;;9.36;42.98
82953;BME280;74888;40.196;44.560;2024-02-14T00:07:54;87312.97;;;9.32;43.06
82953;BME280;74888;40.196;44.560;2024-02-14T00:10:21;87319.38;;;9.25;42.84
82953;BME280;74888;40.196;44.560;2024-02-14T00:12:47;87310.09;;;9.24;43.43
82953;BME280;74888;40.196;44.560;2024-02-14T00:15:17;87313.69;;;9.27;42.95
82953;BME280;74888;40.196;44.560;2024-02-14T00:17:44;87314.84;;;9.31;42.93
82953;BME280;74888;40.196;44.560;2024-02-14T00:20:17;87320.81;;;9.43;42.90
82953;BME280;74888;40.196;44.560;2024-02-14T00:22:44;87325.56;;;9.61;42.63
82953;BME280;74888;40.196;44.560;2024-02-14T00:25:13;87326.53;;;9.80;42.21
82953;BME280;74888;40.196;44.560;2024-02-14T00:27:40;87328.69;;;9.87;42.14
82953;BME280;74888;40.196;44.560;2024-02-14T00:30:06;87328.91;;;9.94;41.51
82953;BME280;74888;40.196;44.560;2024-02-14T00:32:33;87328.19;;;9.94;41.95
82953;BME280;74888;40.196;44.560;2024-02-14T00:35:01;87319.88;;;9.79;42.01
82953;BME280;74888;40.196;44.560;2024-02-14T00:37:26;87322.25;;;9.71;42.45
82953;BME280;74888;40.196;44.560;2024-02-14T00:39:54;87311.78;;;9.60;42.77
82953;BME280;74888;40.196;44.560;2024-02-14T00:42:23;87320.34;;;9.50;43.19
82953;BME280;74888;40.196;44.560;2024-02-14T00:45:03;87316.06;;;9.30;43.60
82953;BME280;74888;40.196;44.560;2024-02-14T00:47:32;87307.25;;;9.17;43.93
82953;BME280;74888;40.196;44.560;2024-02-14T00:50:02;87303.13;;;8.94;44.51
82953;BME280;74888;40.196;44.560;2024-02-14T00:52:28;87307.66;;;8.99;44.54
82953;BME280;74888;40.196;44.560;2024-02-14T00:54:56;87306.72;;;8.96;44.90
82953;BME280;74888;40.196;44.560;2024-02-14T00:57:29;87307.22;;;9.11;44.52
82953;BME280;74888;40.196;44.560;2024-02-14T00:59:55;87296.97;;;9.19;43.51
82953;BME280;74888;40.196;44.560;2024-02-14T01:02:26;87303.44;;;9.23;43.82
82953;BME280;74888;40.196;44.560;2024-02-14T01:04:56;87306.75;;;9.29;43.70
82953;BME280;74888;40.196;44.560;2024-02-14T01:07:30;87299.41;;;9.33;43.82
82953;BME280;74888;40.196;44.560;2024-02-14T01:09:56;87303.44;;;9.40;43.25
82953;BME280;74888;40.196;44.560;2024-02-14T01:12:22;87298.22;;;9.45;43.56
82953;BME280;74888;40.196;44.560;2024-02-14T01:14:48;87301.06;;;9.53;42.79
82953;BME280;74888;40.196;44.560;2024-02-14T01:17:18;87297.97;;;9.49;43.10
82953;BME280;74888;40.196;44.560;2024-02-14T01:19:44;87293.91;;;9.37;43.36
82953;BME280;74888;40.196;44.560;2024-02-14T01:22:11;87294.38;;;9.30;43.04
82953;BME280;74888;40.196;44.560;2024-02-14T01:24:37;87283.69;;;9.39;43.20
82953;BME280;74888;40.196;44.560;2024-02-14T01:27:03;87282.25;;;9.54;42.83
82953;BME280;74888;40.196;44.560;2024-02-14T01:29:29;87281.28;;;9.63;42.52
82953;BME280;74888;40.196;44.560;2024-02-14T01:31:56;87276.75;;;9.63;41.82
82953;BME280;74888;40.196;44.560;2024-02-14T01:34:23;87278.66;;;9.74;41.94
82953;BME280;74888;40.196;44.560;2024-02-14T01:36:50;87284.13;;;9.81;41.69
82953;BME280;74888;40.196;44.560;2024-02-14T01:39:17;87283.19;;;9.79;41.50
82953;BME280;74888;40.196;44.560;2024-02-14T01:41:48;87280.78;;;9.81;42.21
82953;BME280;74888;40.196;44.560;2024-02-14T01:44:16;87283.66;;;9.77;42.12
82953;BME280;74888;40.196;44.560;2024-02-14T01:46:43;87281.97;;;9.74;42.20
82953;BME280;74888;40.196;44.560;2024-02-14T01:49:09;87281.06;;;9.77;42.10
82953;BME280;74888;40.196;44.560;2024-02-14T01:51:38;87284.84;;;9.82;41.77
82953;BME280;74888;40.196;44.560;2024-02-14T01:54:12;87293.88;;;9.92;41.93
82953;BME280;74888;40.196;44.560;2024-02-14T01:56:39;87291.47;;;9.99;41.93
82953;BME280;74888;40.196;44.560;2024-02-14T01:59:06;87287.91;;;10.03;41.33
82953;BME280;74888;40.196;44.560;2024-02-14T02:01:40;87291.72;;;10.13;41.36
82953;BME280;74888;40.196;44.560;2024-02-14T02:04:08;87277.91;;;10.12;41.14
82953;BME280;74888;40.196;44.560;2024-02-14T02:06:47;87275.50;;;10.14;41.42
82953;BME280;74888;40.196;44.560;2024-02-14T02:09:15;87269.78;;;10.10;41.69
82953;BME280;74888;40.196;44.560;2024-02-14T02:11:53;87278.13;;;10.03;41.29
82953;BME280;74888;40.196;44.560;2024-02-14T02:14:21;87279.09;;;10.00;41.72
82953;BME280;74888;40.196;44.560;2024-02-14T02:16:48;87282.66;;;10.08;41.19
82953;BME280;74888;40.196;44.560;2024-02-14T02:19:15;87275.03;;;10.10;41.36
82953;BME280;74888;40.196;44.560;2024-02-14T02:21:43;87271.50;;;9.91;41.63
82953;BME280;74888;40.196;44.560;2024-02-14T02:24:11;87276.25;;;9.76;41.76
82953;BME280;74888;40.196;44.560;2024-02-14T02:26:40;87271.75;;;9.82;42.07
82953;BME280;74888;40.196;44.560;2024-02-14T02:29:12;87273.41;;;9.96;41.51
82953;BME280;74888;40.196;44.560;2024-02-14T02:31:38;87266.47;;;10.04;41.19
82953;BME280;74888;40.196;44.560;2024-02-14T02:34:07;87254.78;;;9.99;41.95
82953;BME280;74888;40.196;44.560;2024-02-14T02:36:36;87248.44;;;9.62;42.56
82953;BME280;74888;40.196;44.560;2024-02-14T02:39:14;87251.75;;;9.24;43.68
82953;BME280;74888;40.196;44.560;2024-02-14T02:41:39;87254.38;;;9.07;44.08
82953;BME280;74888;40.196;44.560;2024-02-14T02:44:12;87266.97;;;9.09;44.53
82953;BME280;74888;40.196;44.560;2024-02-14T02:46:38;87268.69;;;9.12;44.84
82953;BME280;74888;40.196;44.560;2024-02-14T02:49:04;87274.63;;;9.23;43.93
82953;BME280;74888;40.196;44.560;2024-02-14T02:51:31;87277.22;;;9.51;43.71
82953;BME280;74888;40.196;44.560;2024-02-14T02:53:58;87273.44;;;9.35;44.10
82953;BME280;74888;40.196;44.560;2024-02-14T02:56:24;87271.28;;;9.06;44.12
82953;BME280;74888;40.196;44.560;2024-02-14T02:58:55;87268.66;;;9.01;44.42
82953;BME280;74888;40.196;44.560;2024-02-14T03:01:40;87261.03;;;8.97;44.51
82953;BME280;74888;40.196;44.560;2024-02-14T03:04:14;87260.78;;;8.90;44.68
82953;BME280;74888;40.196;44.560;2024-02-14T03:06:41;87261.25;;;8.94;44.35
82953;BME280;74888;40.196;44.560;2024-02-14T03:09:09;87256.03;;;8.99;44.65
82953;BME280;74888;40.196;44.560;2024-02-14T03:11:35;87253.91;;;9.14;44.14
82953;BME280;74888;40.196;44.560;2024-02-14T03:14:03;87256.53;;;9.36;43.57
82953;BME280;74888;40.196;44.560;2024-02-14T03:16:30;87271.53;;;9.58;43.58
82953;BME280;74888;40.196;44.560;2024-02-14T03:18:56;87271.53;;;9.69;43.05
82953;BME280;74888;40.196;44.560;2024-02-14T03:21:24;87270.81;;;9.68;42.97
82953;BME280;74888;40.196;44.560;2024-02-14T03:23:49;87264.16;;;9.62;42.93
82953;BME280;74888;40.196;44.560;2024-02-14T03:26:15;87271.50;;;9.74;42.80
82953;BME280;74888;40.196;44.560;2024-02-14T03:28:45;87278.88;;;9.87;42.56
82953;BME280;74888;40.196;44.560;2024-02-14T03:31:10;87289.81;;;9.96;42.47
82953;BME280;74888;40.196;44.560;2024-02-14T03:33:39;87289.13;;;10.13;42.55
82953;BME280;74888;40.196;44.560;2024-02-14T03:36:05;87291.25;;;10.20;42.05
82953;BME280;74888;40.196;44.560;2024-02-14T03:38:31;87287.91;;;10.08;42.58
82953;BME280;74888;40.196;44.560;2024-02-14T03:40:57;87293.63;;;10.07;42.39
82953;BME280;74888;40.196;44.560;2024-02-14T03:43:22;87271.25;;;10.11;41.98
82953;BME280;74888;40.196;44.560;2024-02-14T03:45:54;87289.31;;;10.26;41.73
82953;BME280;74888;40.196;44.560;2024-02-14T03:48:20;87295.97;;;10.38;41.72
82953;BME280;74888;40.196;44.560;2024-02-14T03:50:51;87302.56;;;10.55;41.53
82953;BME280;74888;40.196;44.560;2024-02-14T03:53:18;87309.19;;;10.73;41.81
82953;BME280;74888;40.196;44.560;2024-02-14T03:55:44;87312.00;;;10.86;40.95
82953;BME280;74888;40.196;44.560;2024-02-14T03:58:09;87306.22;;;10.98;40.54
82953;BME280;74888;40.196;44.560;2024-02-14T04:00:35;87311.53;;;10.82;40.37
82953;BME280;74888;40.196;44.560;2024-02-14T04:03:02;87321.88;;;10.58;41.17
82953;BME280;74888;40.196;44.560;2024-02-14T04:05:28;87323.03;;;10.68;41.25
82953;BME280;74888;40.196;44.560;2024-02-14T04:07:55;87323.94;;;10.81;41.42
82953;BME280;74888;40.196;44.560;2024-02-14T04:10:23;87314.91;;;10.71;40.81
82953;BME280;74888;40.196;44.560;2024-02-14T04:12:50;87317.78;;;10.73;40.88
82953;BME280;74888;40.196;44.560;2024-02-14T04:15:16;87323.00;;;10.79;41.70
82953;BME280;74888;40.196;44.560;2024-02-14T04:17:43;87322.47;;;10.91;41.39
82953;BME280;74888;40.196;44.560;2024-02-14T04:20:09;87333.66;;;10.97;41.24
82953;BME280;74888;40.196;44.560;2024-02-14T04:22:36;87331.81;;;10.87;40.94
82953;BME280;74888;40.196;44.560;2024-02-14T04:25:11;87332.00;;;10.94;40.66
82953;BME280;74888;40.196;44.560;2024-02-14T04:27:49;87331.22;;;11.10;41.43
82953;BME280;74888;40.196;44.560;2024-02-14T04:30:17;87326.72;;;11.05;40.37
82953;BME280;74888;40.196;44.560;2024-02-14T04:32:43;87328.47;;;10.86;40.50
82953;BME280;74888;40.196;44.560;2024-02-14T04:35:09;87315.44;;;10.59;41.58
82953;BME280;74888;40.196;44.560;2024-02-14T04:37:35;87326.63;;;10.65;41.28
82953;BME280;74888;40.196;44.560;2024-02-14T04:40:03;87320.13;;;10.82;41.62
82953;BME280;74888;40.196;44.560;2024-02-14T04:42:43;87326.91;;;11.07;40.87
82953;BME280;74888;40.196;44.560;2024-02-14T04:45:10;87333.03;;;11.27;41.35
82953;BME280;74888;40.196;44.560;2024-02-14T04:47:39;87334.78;;;11.13;40.33
82953;BME280;74888;40.196;44.560;2024-02-14T04:50:05;87339.38;;;10.96;41.09
82953;BME280;74888;40.196;44.560;2024-02-14T04:52:42;87336.91;;;10.57;41.54
82953;BME280;74888;40.196;44.560;2024-02-14T04:55:09;87337.88;;;10.60;41.96
82953;BME280;74888;40.196;44.560;2024-02-14T04:57:40;87343.53;;;10.75;42.12
82953;BME280;74888;40.196;44.560;2024-02-14T05:00:06;87338.78;;;10.73;41.31
82953;BME280;74888;40.196;44.560;2024-02-14T05:02:35;87337.84;;;10.65;41.86
82953;BME280;74888;40.196;44.560;2024-02-14T05:05:02;87339.56;;;10.46;42.31
82953;BME280;74888;40.196;44.560;2024-02-14T05:07:29;87348.63;;;10.56;42.33
82953;BME280;74888;40.196;44.560;2024-02-14T05:09:56;87343.53;;;10.80;42.20
82953;BME280;74888;40.196;44.560;2024-02-14T05:12:23;87350.84;;;11.04;41.64
82953;BME280;74888;40.196;44.560;2024-02-14T05:14:48;87345.25;;;11.24;41.51
82953;BME280;74888;40.196;44.560;2024-02-14T05:17:22;87348.97;;;11.40;41.14
82953;BME280;74888;40.196;44.560;2024-02-14T05:20:05;87338.06;;;11.25;41.36
82953;BME280;74888;40.196;44.560;2024-02-14T05:22:38;87340.75;;;11.13;41.66
82953;BME280;74888;40.196;44.560;2024-02-14T05:25:04;87345.09;;;11.05;41.21
82953;BME280;74888;40.196;44.560;2024-02-14T05:27:36;87344.34;;;11.10;41.17
82953;BME280;74888;40.196;44.560;2024-02-14T05:30:05;87337.31;;;11.30;40.56
82953;BME280;74888;40.196;44.560;2024-02-14T05:32:32;87340.28;;;11.56;40.78
82953;BME280;74888;40.196;44.560;2024-02-14T05:34:59;87341.78;;;11.81;40.45
82953;BME280;74888;40.196;44.560;2024-02-14T05:37:25;87334.84;;;12.13;39.93
82953;BME280;74888;40.196;44.560;2024-02-14T05:39:54;87331.97;;;12.41;39.25
82953;BME280;74888;40.196;44.560;2024-02-14T05:42:35;87321.41;;;12.65;38.56
82953;BME280;74888;40.196;44.560;2024-02-14T05:45:02;87315.59;;;12.72;39.39
82953;BME280;74888;40.196;44.560;2024-02-14T05:47:29;87319.28;;;12.87;38.49
82953;BME280;74888;40.196;44.560;2024-02-14T05:49:56;87310.69;;;13.05;38.51
82953;BME280;74888;40.196;44.560;2024-02-14T05:52:22;87313.22;;;13.16;37.72
82953;BME280;74888;40.196;44.560;2024-02-14T05:54:50;87310.59;;;12.92;38.37
82953;BME280;74888;40.196;44.560;2024-02-14T05:57:15;87295.63;;;13.00;38.86
82953;BME280;74888;40.196;44.560;2024-02-14T05:59:43;87293.50;;;12.99;38.75
82953;BME280;74888;40.196;44.560;2024-02-14T06:02:08;87296.97;;;13.12;38.92
82953;BME280;74888;40.196;44.560;2024-02-14T06:04:36;87299.25;;;13.21;37.91
82953;BME280;74888;40.196;44.560;2024-02-14T06:07:01;87306.84;;;13.25;38.29
82953;BME280;74888;40.196;44.560;2024-02-14T06:09:28;87314.19;;;13.32;38.22
82953;BME280;74888;40.196;44.560;2024-02-14T06:11:54;87311.78;;;12.91;39.53
82953;BME280;74888;40.196;44.560;2024-02-14T06:14:20;87321.34;;;12.94;39.39
82953;BME280;74888;40.196;44.560;2024-02-14T06:16:46;87321.31;;;13.18;38.90
82953;BME280;74888;40.196;44.560;2024-02-14T06:19:15;87314.63;;;13.36;38.04
82953;BME280;74888;40.196;44.560;2024-02-14T06:21:42;87309.47;;;13.43;38.72
82953;BME280;74888;40.196;44.560;2024-02-14T06:24:14;87310.81;;;13.69;38.44
82953;BME280;74888;40.196;44.560;2024-02-14T06:26:46;87309.06;;;13.90;38.29
82953;BME280;74888;40.196;44.560;2024-02-14T06:29:25;87320.97;;;14.09;37.12
82953;BME280;74888;40.196;44.560;2024-02-14T06:32:04;87331.25;;;14.13;37.13
82953;BME280;74888;40.196;44.560;2024-02-14T06:34:30;87328.59;;;14.13;37.46
82953;BME280;74888;40.196;44.560;2024-02-14T06:36:57;87326.56;;;14.06;37.35
82953;BME280;74888;40.196;44.560;2024-02-14T06:39:22;87325.66;;;14.03;37.62
82953;BME280;74888;40.196;44.560;2024-02-14T06:41:50;87324.03;;;14.00;36.94
82953;BME280;74888;40.196;44.560;2024-02-14T06:44:16;87323.59;;;13.96;37.54
82953;BME280;74888;40.196;44.560;2024-02-14T06:46:41;87309.84;;;13.85;37.77
82953;BME280;74888;40.196;44.560;2024-02-14T06:49:08;87305.31;;;13.85;37.93
82953;BME280;74888;40.196;44.560;2024-02-14T06:51:34;87297.78;;;13.89;37.46
82953;BME280;74888;40.196;44.560;2024-02-14T06:54:00;87296.00;;;13.97;37.95
82953;BME280;74888;40.196;44.560;2024-02-14T06:56:25;87298.75;;;14.05;38.13
82953;BME280;74888;40.196;44.560;2024-02-14T06:58:51;87297.44;;;14.11;36.98
82953;BME280;74888;40.196;44.560;2024-02-14T07:01:21;87307.13;;;14.22;37.75
82953;BME280;74888;40.196;44.560;2024-02-14T07:03:50;87300.56;;;14.28;37.41
82953;BME280;74888;40.196;44.560;2024-02-14T07:06:16;87304.22;;;14.38;38.04
82953;BME280;74888;40.196;44.560;2024-02-14T07:08:42;87301.59;;;14.51;37.15
82953;BME280;74888;40.196;44.560;2024-02-14T07:11:09;87302.00;;;14.55;36.38
82953;BME280;74888;40.196;44.560;2024-02-14T07:13:34;87297.53;;;14.50;36.73
82953;BME280;74888;40.196;44.560;2024-02-14T07:16:00;87294.47;;;14.46;37.12
82953;BME280;74888;40.196;44.560;2024-02-14T07:18:26;87298.84;;;14.44;36.70
82953;BME280;74888;40.196;44.560;2024-02-14T07:20:51;87294.47;;;14.33;37.09
82953;BME280;74888;40.196;44.560;2024-02-14T07:23:18;87298.41;;;14.27;37.49
82953;BME280;74888;40.196;44.560;2024-02-14T07:25:44;87305.31;;;14.30;37.20
82953;BME280;74888;40.196;44.560;2024-02-14T07:28:18;87293.88;;;14.40;36.89
82953;BME280;74888;40.196;44.560;2024-02-14T07:30:44;87292.84;;;14.43;36.46
82953;BME280;74888;40.196;44.560;2024-02-14T07:33:13;87287.69;;;14.51;36.07
82953;BME280;74888;40.196;44.560;2024-02-14T07:35:42;87278.84;;;14.61;36.40
82953;BME280;74888;40.196;44.560;2024-02-14T07:38:09;87274.97;;;14.75;36.72
82953;BME280;74888;40.196;44.560;2024-02-14T07:40:35;87272.31;;;14.89;36.51
82953;BME280;74888;40.196;44.560;2024-02-14T07:43:01;87271.19;;;14.97;35.93
82953;BME280;74888;40.196;44.560;2024-02-14T07:45:27;87273.34;;;15.12;35.98
82953;BME280;74888;40.196;44.560;2024-02-14T07:47:53;87268.00;;;15.25;36.00
82953;BME280;74888;40.196;44.560;2024-02-14T07:50:19;87266.28;;;15.40;35.61
82953;BME280;74888;40.196;44.560;2024-02-14T07:52:47;87269.91;;;15.50;34.99
82953;BME280;74888;40.196;44.560;2024-02-14T07:55:13;87262.56;;;15.56;35.22
82953;BME280;74888;40.196;44.560;2024-02-14T07:57:41;87272.00;;;15.65;34.75
82953;BME280;74888;40.196;44.560;2024-02-14T08:00:08;87273.09;;;15.69;34.87
82953;BME280;74888;40.196;44.560;2024-02-14T08:02:34;87271.41;;;15.79;34.88
82953;BME280;74888;40.196;44.560;2024-02-14T08:05:01;87266.84;;;15.80;34.67
82953;BME280;74888;40.196;44.560;2024-02-14T08:07:27;87261.31;;;15.91;35.02
82953;BME280;74888;40.196;44.560;2024-02-14T08:09:53;87256.53;;;15.89;34.20
82953;BME280;74888;40.196;44.560;2024-02-14T08:12:20;87252.34;;;15.94;34.22
82953;BME280;74888;40.196;44.560;2024-02-14T08:14:47;87258.59;;;16.04;34.23
82953;BME280;74888;40.196;44.560;2024-02-14T08:17:18;87258.06;;;16.06;33.44
82953;BME280;74888;40.196;44.560;2024-02-14T08:19:46;87254.19;;;16.07;33.64
82953;BME280;74888;40.196;44.560;2024-02-14T08:22:14;87241.41;;;16.18;33.72
82953;BME280;74888;40.196;44.560;2024-02-14T08:24:40;87238.88;;;16.33;33.60
82953;BME280;74888;40.196;44.560;2024-02-14T08:27:06;87240.16;;;16.40;33.40
82953;BME280;74888;40.196;44.560;2024-02-14T08:29:33;87236.97;;;16.41;33.86
82953;BME280;74888;40.196;44.560;2024-02-14T08:31:59;87235.00;;;16.34;33.70
82953;BME280;74888;40.196;44.560;2024-02-14T08:34:25;87231.63;;;16.34;33.49
82953;BME280;74888;40.196;44.560;2024-02-14T08:36:53;87226.00;;;16.37;33.29
82953;BME280;74888;40.196;44.560;2024-02-14T08:39:18;87217.69;;;16.33;33.72
82953;BME280;74888;40.196;44.560;2024-02-14T08:41:47;87213.41;;;16.30;33.28
82953;BME280;74888;40.196;44.560;2024-02-14T08:44:14;87217.84;;;16.35;32.64
82953;BME280;74888;40.196;44.560;2024-02-14T08:46:40;87216.44;;;16.34;33.17
82953;BME280;74888;40.196;44.560;2024-02-14T08:49:08;87218.56;;;16.36;33.08
82953;BME280;74888;40.196;44.560;2024-02-14T08:51:38;87213.28;;;16.36;32.76
82953;BME280;74888;40.196;44.560;2024-02-14T08:54:05;87213.81;;;16.34;32.97
82953;BME280;74888;40.196;44.560;2024-02-14T08:56:33;87209.06;;;16.40;32.53
82953;BME280;74888;40.196;44.560;2024-02-14T08:59:04;87212.09;;;16.44;32.15
82953;BME280;74888;40.196;44.560;2024-02-14T09:01:35;87210.84;;;16.45;32.57
82953;BME280;74888;40.196;44.560;2024-02-14T09:04:03;87210.38;;;16.47;32.83
82953;BME280;74888;40.196;44.560;2024-02-14T09:06:30;87205.97;;;16.49;33.01
82953;BME280;74888;40.196;44.560;2024-02-14T09:08:57;87208.69;;;16.57;32.90
82953;BME280;74888;40.196;44.560;2024-02-14T09:11:23;87199.81;;;16.54;32.44
82953;BME280;74888;40.196;44.560;2024-02-14T09:13:49;87207.97;;;16.56;33.11
82953;BME280;74888;40.196;44.560;2024-02-14T09:16:19;87204.25;;;16.52;32.82
82953;BME280;74888;40.196;44.560;2024-02-14T09:18:46;87200.53;;;16.55;32.93
82953;BME280;74888;40.196;44.560;2024-02-14T09:21:14;87191.47;;;16.50;32.71
82953;BME280;74888;40.196;44.560;2024-02-14T09:23:43;87192.00;;;16.49;31.96
82953;BME280;74888;40.196;44.560;2024-02-14T09:26:10;87198.94;;;16.52;32.44
82953;BME280;74888;40.196;44.560;2024-02-14T09:28:36;87187.81;;;16.53;32.46
82953;BME280;74888;40.196;44.560;2024-02-14T09:31:03;87187.81;;;16.53;32.78
82953;BME280;74888;40.196;44.560;2024-02-14T09:33:30;87185.91;;;16.61;32.46
82953;BME280;74888;40.196;44.560;2024-02-14T09:35:56;87179.41;;;16.70;32.47
82953;BME280;74888;40.196;44.560;2024-02-14T09:38:21;87163.72;;;16.79;32.40
82953;BME280;74888;40.196;44.560;2024-02-14T09:40:52;87167.81;;;16.88;31.85
82953;BME280;74888;40.196;44.560;2024-02-14T09:43:38;87159.19;;;16.95;31.24
82953;BME280;74888;40.196;44.560;2024-02-14T09:46:08;87162.19;;;16.91;31.65
82953;BME280;74888;40.196;44.560;2024-02-14T09:48:36;87161.81;;;16.87;31.43
82953;BME280;74888;40.196;44.560;2024-02-14T09:51:07;87166.56;;;16.81;31.09
82953;BME280;74888;40.196;44.560;2024-02-14T09:53:33;87155.41;;;16.75;31.58
82953;BME280;74888;40.196;44.560;2024-02-14T09:56:01;87156.09;;;16.76;31.69
82953;BME280;74888;40.196;44.560;2024-02-14T09:58:29;87157.53;;;16.77;32.09
82953;BME280;74888;40.196;44.560;2024-02-14T10:00:56;87154.19;;;16.76;32.11
82953;BME280;74888;40.196;44.560;2024-02-14T10:03:21;87150.47;;;16.79;31.30
82953;BME280;74888;40.196;44.560;2024-02-14T10:05:48;87146.44;;;16.86;31.96
82953;BME280;74888;40.196;44.560;2024-02-14T10:08:14;87136.53;;;16.86;31.95
82953;BME280;74888;40.196;44.560;2024-02-14T10:10:39;87134.97;;;16.91;31.77
82953;BME280;74888;40.196;44.560;2024-02-14T10:13:06;87134.44;;;16.92;31.75
82953;BME280;74888;40.196;44.560;2024-02-14T10:15:33;87132.00;;;17.02;31.73
82953;BME280;74888;40.196;44.560;2024-02-14T10:18:00;87128.47;;;17.07;31.17
82953;BME280;74888;40.196;44.560;2024-02-14T10:20:29;87121.59;;;17.04;30.61
82953;BME280;74888;40.196;44.560;2024-02-14T10:23:08;87121.25;;;17.07;30.15
82953;BME280;74888;40.196;44.560;2024-02-14T10:25:45;87105.84;;;17.06;30.69
82953;BME280;74888;40.196;44.560;2024-02-14T10:28:11;87109.22;;;17.06;31.02
82953;BME280;74888;40.196;44.560;2024-02-14T10:30:36;87119.63;;;17.04;31.57
82953;BME280;74888;40.196;44.560;2024-02-14T10:33:07;87109.34;;;17.01;31.42
82953;BME280;74888;40.196;44.560;2024-02-14T10:35:35;87119.63;;;17.04;31.41
82953;BME280;74888;40.196;44.560;2024-02-14T10:38:04;87114.50;;;17.06;31.56
82953;BME280;74888;40.196;44.560;2024-02-14T10:40:32;87115.94;;;17.07;30.86
82953;BME280;74888;40.196;44.560;2024-02-14T10:43:09;87115.56;;;17.11;30.86
82953;BME280;74888;40.196;44.560;2024-02-14T10:45:38;87116.84;;;17.17;31.37
82953;BME280;74888;40.196;44.560;2024-02-14T10:48:06;87116.84;;;17.17;31.35
82953;BME280;74888;40.196;44.560;2024-02-14T10:50:39;87118.63;;;17.30;31.34
82953;BME280;74888;40.196;44.560;2024-02-14T10:53:14;87106.41;;;17.35;31.30
82953;BME280;74888;40.196;44.560;2024-02-14T10:55:46;87099.72;;;17.41;31.39
82953;BME280;74888;40.196;44.560;2024-02-14T10:58:13;87099.56;;;17.47;31.14
82953;BME280;74888;40.196;44.560;2024-02-14T11:00:40;87105.59;;;17.47;30.88
82953;BME280;74888;40.196;44.560;2024-02-14T11:03:06;87104.19;;;17.46;31.17
82953;BME280;74888;40.196;44.560;2024-02-14T11:05:43;87105.44;;;17.53;31.55
82953;BME280;74888;40.196;44.560;2024-02-14T11:08:15;87103.66;;;17.55;31.27
82953;BME280;74888;40.196;44.560;2024-02-14T11:10:54;87102.78;;;17.53;30.87
82953;BME280;74888;40.196;44.560;2024-02-14T11:13:25;87098.88;;;17.54;30.86
82953;BME280;74888;40.196;44.560;2024-02-14T11:15:53;87101.88;;;17.50;31.56
82953;BME280;74888;40.196;44.560;2024-02-14T11:18:28;87100.81;;;17.53;31.19
82953;BME280;74888;40.196;44.560;2024-02-14T11:21:03;87085.75;;;17.41;31.08
82953;BME280;74888;40.196;44.560;2024-02-14T11:23:30;87081.13;;;17.34;31.64
82953;BME280;74888;40.196;44.560;2024-02-14T11:26:02;87085.56;;;17.31;30.77
82953;BME280;74888;40.196;44.560;2024-02-14T11:28:31;87074.03;;;17.21;31.75
82953;BME280;74888;40.196;44.560;2024-02-14T11:31:03;87081.66;;;17.32;31.30
82953;BME280;74888;40.196;44.560;2024-02-14T11:33:32;87076.56;;;17.34;30.95
82953;BME280;74888;40.196;44.560;2024-02-14T11:36:07;87074.97;;;17.39;31.50
82953;BME280;74888;40.196;44.560;2024-02-14T11:38:35;87073.53;;;17.45;31.76
82953;BME280;74888;40.196;44.560;2024-02-14T11:41:02;87076.03;;;17.58;31.20
82953;BME280;74888;40.196;44.560;2024-02-14T11:43:29;87079.78;;;17.63;31.69
82953;BME280;74888;40.196;44.560;2024-02-14T11:45:57;87064.91;;;17.60;31.40
82953;BME280;74888;40.196;44.560;2024-02-14T11:48:22;87066.31;;;17.53;30.88
82953;BME280;74888;40.196;44.560;2024-02-14T11:50:53;87057.31;;;17.56;31.28
82953;BME280;74888;40.196;44.560;2024-02-14T11:53:20;87057.09;;;17.62;31.12
82953;BME280;74888;40.196;44.560;2024-02-14T11:55:46;87053.56;;;17.52;30.73
82953;BME280;74888;40.196;44.560;2024-02-14T11:58:16;87057.09;;;17.39;30.95
82953;BME280;74888;40.196;44.560;2024-02-14T12:00:43;87052.47;;;17.40;31.22
82953;BME280;74888;40.196;44.560;2024-02-14T12:03:19;87055.50;;;17.44;31.15
82953;BME280;74888;40.196;44.560;2024-02-14T12:05:49;87059.94;;;17.41;30.95
82953;BME280;74888;40.196;44.560;2024-02-14T12:08:22;87056.03;;;17.27;31.49
82953;BME280;74888;40.196;44.560;2024-02-14T12:10:49;87063.09;;;17.32;31.40
82953;BME280;74888;40.196;44.560;2024-02-14T12:13:17;87055.88;;;17.33;31.40
82953;BME280;74888;40.196;44.560;2024-02-14T12:15:49;87064.50;;;17.26;31.15
82953;BME280;74888;40.196;44.560;2024-02-14T12:21:06;87051.78;;;17.16;31.60
82953;BME280;74888;40.196;44.560;2024-02-14T12:23:36;87051.94;;;17.18;31.62
82953;BME280;74888;40.196;44.560;2024-02-14T12:26:13;87055.31;;;17.11;31.98
82953;BME280;74888;40.196;44.560;2024-02-14T12:28:46;87048.75;;;17.05;32.04
82953;BME280;74888;40.196;44.560;2024-02-14T12:31:21;87049.28;;;17.11;30.97
82953;BME280;74888;40.196;44.560;2024-02-14T12:33:48;87048.94;;;17.07;32.12
82953;BME280;74888;40.196;44.560;2024-02-14T12:36:21;87054.25;;;17.07;31.80
82953;BME280;74888;40.196;44.560;2024-02-14T12:39:01;87049.28;;;17.03;31.80
82953;BME280;74888;40.196;44.560;2024-02-14T12:41:31;87037.97;;;16.95;32.33
82953;BME280;74888;40.196;44.560;2024-02-14T12:43:58;87045.19;;;16.95;32.25
82953;BME280;74888;40.196;44.560;2024-02-14T12:46:26;87048.38;;;16.93;31.91
82953;BME280;74888;40.196;44.560;2024-02-14T12:48:52;87047.47;;;16.91;32.20
82953;BME280;74888;40.196;44.560;2024-02-14T12:51:19;87053.31;;;16.89;31.95
82953;BME280;74888;40.196;44.560;2024-02-14T12:53:44;87057.56;;;16.85;32.68
82953;BME280;74888;40.196;44.560;2024-02-14T12:56:17;87062.28;;;16.79;32.16
82953;BME280;74888;40.196;44.560;2024-02-14T12:58:43;87061.22;;;16.74;32.07
82953;BME280;74888;40.196;44.560;2024-02-14T13:01:09;87064.94;;;16.71;32.27